createdAt,value
2022-11-25T00:00:24.697Z,52.75
2022-11-25T00:01:24.698Z,51.04
2022-11-25T00:02:24.849Z,50.09
2022-11-25T00:03:24.821Z,51.14
2022-11-25T00:04:24.720Z,52.37
2022-11-25T00:05:24.720Z,53.59
2022-11-25T00:06:24.739Z,53.97
2022-11-25T00:07:24.769Z,55.49
2022-11-25T00:08:24.745Z,55.77
2022-11-25T00:09:24.765Z,56.82
2022-11-25T00:10:24.760Z,56.72
2022-11-25T00:11:24.788Z,56.15
2022-11-25T00:12:24.790Z,56.25
2022-11-25T00:13:24.769Z,56.72
2022-11-25T00:14:24.782Z,57.48
2022-11-25T00:15:24.782Z,56.15
2022-11-25T00:16:24.873Z,54.07
2022-11-25T00:17:24.793Z,52.37
2022-11-25T00:18:24.805Z,52.08
2022-11-25T00:19:24.815Z,54.64
2022-11-25T00:20:24.815Z,57.20
2022-11-25T00:21:24.823Z,57.29
2022-11-25T00:22:24.831Z,56.63
2022-11-25T00:23:27.974Z,56.91
2022-11-25T00:24:24.843Z,57.86
2022-11-25T00:25:24.863Z,58.24
2022-11-25T00:26:24.860Z,59.28
2022-11-25T00:27:24.856Z,59.28
2022-11-25T00:28:24.864Z,60.10
2022-11-25T00:29:24.870Z,61.05
2022-11-25T00:30:24.878Z,61.43
2022-11-25T00:31:24.959Z,62.28
2022-11-25T00:32:24.893Z,62.28
2022-11-25T00:33:24.894Z,62.75
2022-11-25T00:34:24.904Z,62.56
2022-11-25T00:35:24.905Z,63.04
2022-11-25T00:36:24.917Z,63.32
2022-11-25T00:37:24.923Z,63.60
2022-11-25T00:38:24.926Z,63.13
2022-11-25T00:39:24.930Z,63.23
2022-11-25T00:40:24.939Z,63.04
2022-11-25T00:41:24.964Z,62.75
2022-11-25T00:42:24.951Z,62.47
2022-11-25T00:43:24.955Z,62.66
2022-11-25T00:44:24.963Z,62.66
2022-11-25T00:45:25.050Z,63.04
2022-11-25T00:46:24.977Z,62.66
2022-11-25T00:47:24.981Z,62.85
2022-11-25T00:48:24.995Z,62.66
2022-11-25T00:49:24.990Z,61.90
2022-11-25T00:50:25.001Z,61.43
2022-11-25T00:51:25.000Z,61.24
2022-11-25T00:52:25.013Z,60.77
2022-11-25T00:53:25.015Z,59.25
2022-11-25T00:54:25.022Z,58.87
2022-11-25T00:55:25.027Z,58.59
2022-11-25T00:56:25.035Z,58.02
2022-11-25T00:57:25.058Z,57.83
2022-11-25T00:58:25.050Z,57.92
2022-11-25T00:59:25.052Z,58.02
2022-11-25T01:00:25.068Z,58.30
2022-11-25T01:01:25.178Z,57.45
2022-11-25T01:02:25.171Z,56.51
2022-11-25T01:03:25.075Z,56.13
2022-11-25T01:04:25.081Z,57.45
2022-11-25T01:05:25.087Z,58.40
2022-11-25T01:06:25.102Z,59.16
2022-11-25T01:07:25.166Z,59.34
2022-11-25T01:08:25.108Z,57.54
2022-11-25T01:09:25.210Z,56.60
2022-11-25T01:10:25.122Z,56.06
2022-11-25T01:11:25.123Z,55.46
2022-11-25T01:12:25.131Z,56.15
2022-11-25T01:13:25.154Z,56.91
2022-11-25T01:14:25.146Z,58.05
2022-11-25T01:15:25.145Z,58.14
2022-11-25T01:16:25.224Z,58.71
2022-11-25T01:17:25.159Z,58.62
2022-11-25T01:18:25.168Z,58.14
2022-11-25T01:19:25.171Z,55.11
2022-11-25T01:20:25.281Z,52.65
2022-11-25T01:21:25.183Z,52.94
2022-11-25T01:22:25.189Z,53.22
2022-11-25T01:23:25.196Z,54.74
2022-11-25T01:24:25.205Z,55.21
2022-11-25T01:25:25.206Z,54.16
2022-11-25T01:26:25.216Z,53.59
2022-11-25T01:27:25.219Z,52.18
2022-11-25T01:28:25.226Z,52.37
2022-11-25T01:29:25.258Z,52.94
2022-11-25T01:30:25.241Z,52.75
2022-11-25T01:31:25.275Z,51.89
2022-11-25T01:32:25.257Z,48.58
2022-11-25T01:33:25.259Z,47.53
2022-11-25T01:34:25.274Z,46.97
2022-11-25T01:35:25.269Z,46.69
2022-11-25T01:36:25.282Z,47.25
2022-11-25T01:37:25.279Z,47.72
2022-11-25T01:38:25.290Z,47.34
2022-11-25T01:39:31.711Z,48.68
2022-11-25T01:40:25.299Z,49.24
2022-11-25T01:41:25.309Z,49.71
2022-11-25T01:42:25.313Z,50.28
2022-11-25T01:43:25.315Z,50.00
2022-11-25T01:44:25.335Z,49.71
2022-11-25T01:45:28.534Z,49.05
2022-11-25T01:46:25.360Z,47.82
2022-11-25T01:47:25.342Z,45.74
2022-11-25T01:48:25.351Z,45.07
2022-11-25T01:49:25.355Z,45.74
2022-11-25T01:50:25.369Z,46.69
2022-11-25T01:51:25.374Z,46.88
2022-11-25T01:52:25.375Z,47.25
2022-11-25T01:53:25.380Z,46.31
2022-11-25T01:54:25.393Z,45.64
2022-11-25T01:55:25.394Z,46.21
2022-11-25T01:56:25.403Z,46.97
2022-11-25T01:57:25.404Z,48.29
2022-11-25T01:58:25.419Z,49.52
2022-11-25T01:59:25.418Z,51.32
2022-11-25T02:00:25.430Z,52.37
2022-11-25T02:01:25.490Z,53.03
2022-11-25T02:02:25.512Z,52.65
2022-11-25T02:03:25.445Z,51.80
2022-11-25T02:04:25.454Z,50.95
2022-11-25T02:05:28.446Z,52.75
2022-11-25T02:06:25.465Z,54.26
2022-11-25T02:07:25.521Z,55.30
2022-11-25T02:08:25.478Z,55.21
2022-11-25T02:09:25.483Z,51.70
2022-11-25T02:10:25.527Z,48.77
2022-11-25T02:11:25.521Z,46.50
2022-11-25T02:12:25.505Z,46.50
2022-11-25T02:13:25.509Z,48.10
2022-11-25T02:14:25.517Z,50.57
2022-11-25T02:15:25.533Z,52.37
2022-11-25T02:16:25.593Z,51.04
2022-11-25T02:17:25.554Z,50.19
2022-11-25T02:18:25.545Z,51.04
2022-11-25T02:19:25.550Z,51.04
2022-11-25T02:20:25.552Z,51.14
2022-11-25T02:21:25.565Z,52.56
2022-11-25T02:22:25.572Z,53.97
2022-11-25T02:23:25.585Z,54.83
2022-11-25T02:24:25.577Z,56.82
2022-11-25T02:25:25.587Z,56.72
2022-11-25T02:26:25.602Z,55.68
2022-11-25T02:27:25.600Z,55.21
2022-11-25T02:28:25.604Z,54.74
2022-11-25T02:29:25.611Z,53.69
2022-11-25T02:30:25.617Z,52.08
2022-11-25T02:31:25.669Z,52.65
2022-11-25T02:32:25.628Z,53.50
2022-11-25T02:33:25.657Z,54.16
2022-11-25T02:34:25.641Z,53.88
2022-11-25T02:35:25.652Z,53.22
2022-11-25T02:36:25.654Z,53.13
2022-11-25T02:37:25.661Z,53.31
2022-11-25T02:38:25.666Z,53.78
2022-11-25T02:39:25.675Z,53.78
2022-11-25T02:40:25.678Z,53.50
2022-11-25T02:41:25.710Z,54.07
2022-11-25T02:42:25.704Z,53.22
2022-11-25T02:43:25.699Z,53.41
2022-11-25T02:44:25.704Z,53.78
2022-11-25T02:45:25.748Z,53.97
2022-11-25T02:46:25.820Z,54.07
2022-11-25T02:47:25.727Z,54.16
2022-11-25T02:48:45.723Z,54.26
2022-11-25T02:49:25.757Z,54.07
2022-11-25T02:50:25.741Z,54.35
2022-11-25T02:51:25.751Z,53.78
2022-11-25T02:52:25.752Z,53.97
2022-11-25T02:53:25.762Z,53.22
2022-11-25T02:54:25.766Z,52.75
2022-11-25T02:55:25.777Z,52.75
2022-11-25T02:56:25.777Z,51.99
2022-11-25T02:57:25.788Z,52.56
2022-11-25T02:58:25.791Z,52.56
2022-11-25T02:59:25.804Z,52.56
2022-11-25T03:00:25.805Z,52.56
2022-11-25T03:01:25.931Z,52.65
2022-11-25T03:02:25.841Z,53.50
2022-11-25T03:03:25.830Z,53.50
2022-11-25T03:04:25.829Z,53.22
2022-11-25T03:05:25.858Z,51.32
2022-11-25T03:06:25.846Z,49.24
2022-11-25T03:07:25.936Z,47.34
2022-11-25T03:08:25.861Z,47.25
2022-11-25T03:09:25.865Z,47.94
2022-11-25T03:10:25.867Z,50.57
2022-11-25T03:11:25.875Z,52.11
2022-11-25T03:12:25.878Z,51.82
2022-11-25T03:13:25.887Z,52.68
2022-11-25T03:14:25.893Z,53.44
2022-11-25T03:15:25.902Z,54.35
2022-11-25T03:16:25.972Z,54.16
2022-11-25T03:17:25.919Z,54.64
2022-11-25T03:18:25.918Z,54.93
2022-11-25T03:19:25.932Z,55.77
2022-11-25T03:20:25.931Z,55.49
2022-11-25T03:21:25.959Z,55.49
2022-11-25T03:22:25.945Z,55.77
2022-11-25T03:23:25.954Z,56.25
2022-11-25T03:24:25.955Z,55.96
2022-11-25T03:25:25.966Z,56.15
2022-11-25T03:26:25.971Z,56.15
2022-11-25T03:27:29.127Z,56.25
2022-11-25T03:28:25.981Z,56.06
2022-11-25T03:29:25.990Z,55.77
2022-11-25T03:30:26.006Z,56.44
2022-11-25T03:31:26.077Z,55.58
2022-11-25T03:32:26.011Z,56.06
2022-11-25T03:33:26.015Z,56.91
2022-11-25T03:34:26.018Z,57.67
2022-11-25T03:35:26.031Z,57.86
2022-11-25T03:36:26.030Z,59.00
2022-11-25T03:37:26.109Z,59.47
2022-11-25T03:38:26.058Z,59.38
2022-11-25T03:39:26.055Z,57.67
2022-11-25T03:40:26.058Z,57.57
2022-11-25T03:41:26.070Z,57.76
2022-11-25T03:42:26.069Z,58.14
2022-11-25T03:43:26.081Z,59.19
2022-11-25T03:44:26.081Z,59.00
2022-11-25T03:45:26.111Z,59.56
2022-11-25T03:46:26.193Z,59.00
2022-11-25T03:47:26.106Z,58.05
2022-11-25T03:48:26.107Z,57.57
2022-11-25T03:49:26.121Z,56.15
2022-11-25T03:50:26.122Z,55.68
2022-11-25T03:51:26.131Z,56.53
2022-11-25T03:52:26.141Z,56.44
2022-11-25T03:53:26.164Z,57.57
2022-11-25T03:54:26.155Z,58.71
2022-11-25T03:55:26.157Z,59.09
2022-11-25T03:56:26.159Z,59.09
2022-11-25T03:57:26.168Z,59.38
2022-11-25T03:58:26.172Z,59.75
2022-11-25T03:59:26.187Z,59.94
2022-11-25T04:00:26.184Z,59.75
2022-11-25T04:01:26.349Z,58.90
2022-11-25T04:02:26.248Z,59.28
2022-11-25T04:03:26.207Z,59.38
2022-11-25T04:04:26.210Z,58.90
2022-11-25T04:05:26.326Z,57.95
2022-11-25T04:06:26.226Z,57.48
2022-11-25T04:07:26.298Z,56.63
2022-11-25T04:08:26.243Z,56.15
2022-11-25T04:09:26.266Z,56.34
2022-11-25T04:10:26.250Z,57.20
2022-11-25T04:11:26.261Z,57.76
2022-11-25T04:12:26.275Z,57.76
2022-11-25T04:13:26.283Z,57.48
2022-11-25T04:14:26.278Z,57.01
2022-11-25T04:15:26.303Z,56.44
2022-11-25T04:16:26.395Z,57.01
2022-11-25T04:17:26.309Z,56.53
2022-11-25T04:18:26.302Z,57.13
2022-11-25T04:19:26.312Z,56.66
2022-11-25T04:20:26.316Z,56.56
2022-11-25T04:21:26.326Z,56.75
2022-11-25T04:22:26.329Z,56.75
2022-11-25T04:23:26.342Z,56.37
2022-11-25T04:24:26.347Z,56.75
2022-11-25T04:25:26.372Z,56.75
2022-11-25T04:26:26.357Z,56.56
2022-11-25T04:27:26.467Z,56.94
2022-11-25T04:28:26.369Z,57.89
2022-11-25T04:29:26.377Z,57.89
2022-11-25T04:30:26.427Z,57.70
2022-11-25T04:31:26.390Z,57.60
2022-11-25T04:32:27.368Z,57.60
2022-11-25T04:33:26.404Z,57.04
2022-11-25T04:34:26.406Z,56.94
2022-11-25T04:35:26.415Z,56.27
2022-11-25T04:36:26.419Z,54.64
2022-11-25T04:37:26.429Z,53.50
2022-11-25T04:38:26.438Z,52.75
2022-11-25T04:39:26.442Z,53.41
2022-11-25T04:40:26.446Z,54.26
2022-11-25T04:41:26.474Z,53.97
2022-11-25T04:42:26.460Z,52.37
2022-11-25T04:43:26.472Z,51.70
2022-11-25T04:44:26.575Z,50.85
2022-11-25T04:45:26.490Z,51.23
2022-11-25T04:46:26.519Z,51.80
2022-11-25T04:47:26.501Z,51.99
2022-11-25T04:48:26.510Z,52.27
2022-11-25T04:49:26.506Z,52.18
2022-11-25T04:50:26.518Z,51.61
2022-11-25T04:51:26.522Z,51.23
2022-11-25T04:52:26.524Z,51.61
2022-11-25T04:53:26.539Z,53.03
2022-11-25T04:54:26.537Z,53.59
2022-11-25T04:55:26.546Z,53.69
2022-11-25T04:56:26.549Z,52.94
2022-11-25T04:57:26.582Z,52.56
2022-11-25T04:58:26.565Z,51.04
2022-11-25T04:59:26.574Z,50.47
2022-11-25T05:00:26.578Z,50.85
2022-11-25T05:01:26.650Z,50.28
2022-11-25T05:02:26.677Z,50.38
2022-11-25T05:03:26.617Z,49.17
2022-11-25T05:04:26.603Z,48.89
2022-11-25T05:05:26.615Z,48.60
2022-11-25T05:06:26.618Z,48.41
2022-11-25T05:07:26.706Z,48.22
2022-11-25T05:08:26.636Z,47.75
2022-11-25T05:09:26.663Z,49.08
2022-11-25T05:10:26.643Z,48.03
2022-11-25T05:11:26.651Z,47.85
2022-11-25T05:12:26.659Z,47.37
2022-11-25T05:13:26.684Z,46.61
2022-11-25T05:14:26.668Z,46.52
2022-11-25T05:15:26.685Z,45.86
2022-11-25T05:16:26.722Z,46.99
2022-11-25T05:17:26.691Z,48.03
2022-11-25T05:18:26.696Z,48.89
2022-11-25T05:19:26.703Z,50.21
2022-11-25T05:20:26.707Z,50.31
2022-11-25T05:21:26.719Z,50.59
2022-11-25T05:22:26.723Z,50.69
2022-11-25T05:23:26.728Z,50.40
2022-11-25T05:24:26.732Z,50.95
2022-11-25T05:25:26.746Z,50.69
2022-11-25T05:26:26.745Z,50.31
2022-11-25T05:27:26.758Z,50.49
2022-11-25T05:28:26.758Z,50.97
2022-11-25T05:29:26.786Z,51.23
2022-11-25T05:30:26.831Z,52.27
2022-11-25T05:31:26.781Z,52.18
2022-11-25T05:32:26.784Z,52.18
2022-11-25T05:33:26.794Z,52.84
2022-11-25T05:34:26.796Z,53.41
2022-11-25T05:35:26.807Z,53.97
2022-11-25T05:36:26.810Z,54.07
2022-11-25T05:37:26.816Z,53.97
2022-11-25T05:38:26.824Z,54.16
2022-11-25T05:39:26.834Z,54.35
2022-11-25T05:40:26.934Z,53.69
2022-11-25T05:41:26.845Z,51.99
2022-11-25T05:42:26.848Z,51.80
2022-11-25T05:43:26.858Z,52.37
2022-11-25T05:44:26.861Z,52.65
2022-11-25T05:45:26.893Z,53.50
2022-11-25T05:46:27.008Z,54.64
2022-11-25T05:47:26.886Z,55.96
2022-11-25T05:48:26.886Z,56.34
2022-11-25T05:49:26.901Z,56.15
2022-11-25T05:50:26.901Z,55.96
2022-11-25T05:51:26.913Z,56.25
2022-11-25T05:52:26.914Z,56.15
2022-11-25T05:53:26.928Z,56.34
2022-11-25T05:54:26.927Z,56.63
2022-11-25T05:55:26.941Z,55.49
2022-11-25T05:56:26.941Z,53.78
2022-11-25T05:57:26.949Z,51.51
2022-11-25T05:58:26.952Z,50.66
2022-11-25T05:59:26.965Z,50.21
2022-11-25T06:00:27.112Z,50.85
2022-11-25T06:01:26.995Z,50.95
2022-11-25T06:02:27.127Z,50.88
2022-11-25T06:03:27.063Z,51.14
2022-11-25T06:04:27.007Z,52.08
2022-11-25T06:05:27.011Z,52.27
2022-11-25T06:06:27.006Z,52.75
2022-11-25T06:07:27.098Z,52.75
2022-11-25T06:08:27.021Z,53.03
2022-11-25T06:09:27.032Z,53.69
2022-11-25T06:10:27.039Z,54.16
2022-11-25T06:11:27.045Z,55.40
2022-11-25T06:12:27.075Z,56.34
2022-11-25T06:13:27.060Z,56.91
2022-11-25T06:14:27.060Z,56.91
2022-11-25T06:15:27.072Z,56.82
2022-11-25T06:16:27.137Z,56.53
2022-11-25T06:17:27.107Z,56.25
2022-11-25T06:18:27.088Z,56.34
2022-11-25T06:19:27.097Z,56.06
2022-11-25T06:20:27.102Z,55.02
2022-11-25T06:21:27.111Z,55.40
2022-11-25T06:22:27.122Z,56.53
2022-11-25T06:23:27.134Z,57.39
2022-11-25T06:24:27.126Z,57.57
2022-11-25T06:25:27.135Z,56.63
2022-11-25T06:26:27.144Z,57.57
2022-11-25T06:27:31.960Z,57.48
2022-11-25T06:28:27.160Z,56.72
2022-11-25T06:29:27.162Z,56.15
2022-11-25T06:30:27.169Z,56.44
2022-11-25T06:31:27.262Z,56.72
2022-11-25T06:32:27.180Z,56.25
2022-11-25T06:33:27.222Z,56.63
2022-11-25T06:34:27.209Z,56.06
2022-11-25T06:35:27.200Z,55.58
2022-11-25T06:36:27.214Z,54.74
2022-11-25T06:37:27.219Z,54.55
2022-11-25T06:38:27.237Z,55.21
2022-11-25T06:39:27.230Z,55.49
2022-11-25T06:40:27.234Z,56.25
2022-11-25T06:41:27.238Z,56.91
2022-11-25T06:42:27.251Z,57.29
2022-11-25T06:43:27.253Z,57.57
2022-11-25T06:44:27.260Z,57.57
2022-11-25T06:45:27.266Z,57.86
2022-11-25T06:46:27.308Z,56.91
2022-11-25T06:47:27.281Z,57.57
2022-11-25T06:48:27.295Z,58.05
2022-11-25T06:49:27.313Z,57.39
2022-11-25T06:50:27.298Z,57.86
2022-11-25T06:51:27.304Z,58.71
2022-11-25T06:52:27.314Z,58.71
2022-11-25T06:53:27.316Z,59.28
2022-11-25T06:54:27.324Z,59.28
2022-11-25T06:55:27.331Z,59.19
2022-11-25T06:56:27.346Z,59.38
2022-11-25T06:57:27.348Z,59.56
2022-11-25T06:58:35.779Z,58.81
2022-11-25T06:59:27.355Z,58.90
2022-11-25T07:00:27.365Z,58.90
2022-11-25T07:01:27.497Z,58.90
2022-11-25T07:02:27.423Z,58.81
2022-11-25T07:03:27.422Z,58.81
2022-11-25T07:04:27.391Z,58.62
2022-11-25T07:05:27.424Z,58.05
2022-11-25T07:06:27.402Z,57.67
2022-11-25T07:07:27.504Z,58.14
2022-11-25T07:08:32.435Z,58.14
2022-11-25T07:09:27.444Z,58.14
2022-11-25T07:10:27.430Z,58.81
2022-11-25T07:11:27.431Z,58.05
2022-11-25T07:12:27.444Z,58.14
2022-11-25T07:13:27.445Z,57.48
2022-11-25T07:14:27.453Z,56.63
2022-11-25T07:15:27.467Z,56.34
2022-11-25T07:16:27.576Z,55.58
2022-11-25T07:17:27.471Z,56.15
2022-11-25T07:18:27.479Z,56.82
2022-11-25T07:19:27.495Z,57.76
2022-11-25T07:20:27.495Z,58.14
2022-11-25T07:21:27.514Z,59.00
2022-11-25T07:22:27.507Z,59.00
2022-11-25T07:23:27.507Z,58.05
2022-11-25T07:24:27.519Z,58.33
2022-11-25T07:25:30.675Z,58.14
2022-11-25T07:26:27.530Z,58.81
2022-11-25T07:27:27.535Z,58.90
2022-11-25T07:28:27.543Z,58.71
2022-11-25T07:29:54.248Z,58.90
2022-11-25T07:31:31.512Z,59.28
2022-11-25T07:32:27.571Z,59.09
2022-11-25T07:33:27.620Z,59.38
2022-11-25T07:34:27.583Z,59.19
2022-11-25T07:35:27.585Z,59.00
2022-11-25T07:36:27.595Z,58.71
2022-11-25T07:37:27.624Z,58.62
2022-11-25T07:38:27.611Z,58.52
2022-11-25T07:39:27.615Z,59.00
2022-11-25T07:40:27.649Z,59.38
2022-11-25T07:41:27.645Z,59.19
2022-11-25T07:42:27.722Z,59.28
2022-11-25T07:43:27.637Z,59.38
2022-11-25T07:44:27.648Z,59.28
2022-11-25T07:45:27.650Z,57.95
2022-11-25T07:46:27.826Z,57.57
2022-11-25T07:47:27.675Z,57.79
2022-11-25T07:48:27.678Z,58.17
2022-11-25T07:49:27.677Z,59.12
2022-11-25T07:50:27.774Z,59.03
2022-11-25T07:51:27.689Z,58.55
2022-11-25T07:52:27.699Z,58.55
2022-11-25T07:53:27.722Z,59.03
2022-11-25T07:54:27.727Z,58.93
2022-11-25T07:55:27.717Z,59.50
2022-11-25T07:56:27.732Z,59.50
2022-11-25T07:57:27.730Z,59.41
2022-11-25T07:58:27.751Z,59.31
2022-11-25T07:59:27.742Z,59.12
2022-11-25T08:00:27.789Z,59.22
2022-11-25T08:01:27.824Z,59.59
2022-11-25T08:02:27.825Z,59.88
2022-11-25T08:03:27.776Z,59.78
2022-11-25T08:04:27.795Z,60.06
2022-11-25T08:05:27.786Z,60.54
2022-11-25T08:06:27.793Z,60.35
2022-11-25T08:07:32.045Z,61.02
2022-11-25T08:08:27.831Z,61.68
2022-11-25T08:09:27.897Z,61.49
2022-11-25T08:10:27.819Z,61.02
2022-11-25T08:11:27.828Z,59.12
2022-11-25T08:12:27.836Z,59.59
2022-11-25T08:13:27.843Z,60.16
2022-11-25T08:14:27.851Z,61.11
2022-11-25T08:15:27.853Z,62.34
2022-11-25T08:16:27.966Z,63.10
2022-11-25T08:17:27.865Z,63.29
2022-11-25T08:18:27.878Z,63.29
2022-11-25T08:19:31.460Z,62.91
2022-11-25T08:20:27.889Z,63.29
2022-11-25T08:21:27.897Z,63.29
2022-11-25T08:22:27.903Z,63.39
2022-11-25T08:23:27.906Z,63.85
2022-11-25T08:24:27.971Z,63.95
2022-11-25T08:25:27.941Z,64.04
2022-11-25T08:26:27.960Z,64.42
2022-11-25T08:27:27.938Z,64.90
2022-11-25T08:28:27.944Z,64.14
2022-11-25T08:29:27.949Z,62.94
2022-11-25T08:30:27.982Z,61.77
2022-11-25T08:31:28.048Z,61.52
2022-11-25T08:32:27.975Z,61.43
2022-11-25T08:33:27.980Z,61.14
2022-11-25T08:34:27.988Z,61.52
2022-11-25T08:35:27.992Z,61.05
2022-11-25T08:36:28.003Z,61.71
2022-11-25T08:37:28.108Z,61.71
2022-11-25T08:38:28.016Z,61.80
2022-11-25T08:39:51.145Z,61.24
2022-11-25T08:40:28.033Z,61.05
2022-11-25T08:41:28.057Z,60.10
2022-11-25T08:42:28.059Z,59.63
2022-11-25T08:43:29.744Z,59.53
2022-11-25T08:44:28.059Z,59.53
2022-11-25T08:45:28.064Z,59.72
2022-11-25T08:46:28.177Z,60.47
2022-11-25T08:47:28.079Z,59.44
2022-11-25T08:48:28.090Z,58.58
2022-11-25T08:49:28.094Z,59.63
2022-11-25T08:50:28.106Z,60.95
2022-11-25T08:51:28.119Z,60.28
2022-11-25T08:52:28.120Z,61.52
2022-11-25T08:53:28.124Z,62.28
2022-11-25T08:54:28.132Z,62.18
2022-11-25T08:55:28.161Z,62.18
2022-11-25T08:56:28.154Z,61.61
2022-11-25T08:57:28.171Z,61.52
2022-11-25T08:58:28.164Z,61.52
2022-11-25T08:59:28.166Z,62.56
2022-11-25T09:00:28.177Z,62.66
2022-11-25T09:01:28.260Z,62.66
2022-11-25T09:02:28.234Z,61.33
2022-11-25T09:03:28.273Z,61.33
2022-11-25T09:04:28.222Z,60.28
2022-11-25T09:05:28.212Z,60.00
2022-11-25T09:06:28.223Z,60.28
2022-11-25T09:07:30.852Z,60.10
2022-11-25T09:08:28.234Z,60.38
2022-11-25T09:09:28.241Z,61.14
2022-11-25T09:10:28.252Z,60.86
2022-11-25T09:11:28.305Z,61.52
2022-11-25T09:12:28.266Z,61.61
2022-11-25T09:13:28.289Z,62.08
2022-11-25T09:14:28.321Z,62.47
2022-11-25T09:15:28.284Z,62.56
2022-11-25T09:16:28.464Z,62.37
2022-11-25T09:17:28.299Z,62.69
2022-11-25T09:18:28.310Z,62.75
2022-11-25T09:19:28.317Z,63.07
2022-11-25T09:20:28.323Z,62.78
2022-11-25T09:21:28.328Z,62.78
2022-11-25T09:22:28.345Z,62.59
2022-11-25T09:23:28.347Z,61.93
2022-11-25T09:24:28.354Z,61.46
2022-11-25T09:25:28.358Z,60.98
2022-11-25T09:26:28.411Z,60.22
2022-11-25T09:27:28.378Z,60.03
2022-11-25T09:28:28.386Z,59.08
2022-11-25T09:29:28.419Z,58.51
2022-11-25T09:30:28.401Z,59.18
2022-11-25T09:31:28.473Z,58.80
2022-11-25T09:32:28.417Z,57.47
2022-11-25T09:33:28.424Z,56.99
2022-11-25T09:34:28.432Z,55.86
2022-11-25T09:35:28.437Z,56.62
2022-11-25T09:36:28.450Z,56.99
2022-11-25T09:37:28.456Z,57.09
2022-11-25T09:38:28.467Z,57.66
2022-11-25T09:39:28.470Z,56.99
2022-11-25T09:40:28.480Z,56.43
2022-11-25T09:41:28.488Z,56.05
2022-11-25T09:42:28.501Z,56.15
2022-11-25T09:43:28.504Z,56.81
2022-11-25T09:44:28.512Z,56.24
2022-11-25T09:45:28.537Z,56.81
2022-11-25T09:46:28.628Z,56.52
2022-11-25T09:47:28.537Z,56.34
2022-11-25T09:48:28.545Z,56.15
2022-11-25T09:49:28.551Z,56.43
2022-11-25T09:50:28.567Z,56.27
2022-11-25T09:51:28.567Z,56.27
2022-11-25T09:52:28.579Z,57.79
2022-11-25T09:53:28.594Z,62.43
2022-11-25T09:54:28.600Z,63.76
2022-11-25T09:55:28.609Z,63.01
2022-11-25T09:56:28.624Z,63.01
2022-11-25T09:57:28.616Z,63.48
2022-11-25T09:58:28.639Z,63.13
2022-11-25T09:59:28.631Z,62.08
2022-11-25T10:00:28.644Z,61.80
2022-11-25T10:01:28.669Z,61.42
2022-11-25T10:02:28.846Z,60.38
2022-11-25T10:03:28.730Z,59.24
2022-11-25T10:04:28.675Z,60.79
2022-11-25T10:05:28.680Z,59.55
2022-11-25T10:06:28.783Z,59.93
2022-11-25T10:07:28.703Z,61.20
2022-11-25T10:08:28.709Z,59.49
2022-11-25T10:09:28.715Z,58.92
2022-11-25T10:10:28.739Z,56.45
2022-11-25T10:11:28.733Z,54.29
2022-11-25T10:12:28.748Z,56.85
2022-11-25T10:13:28.756Z,55.33
2022-11-25T10:14:28.766Z,54.93
2022-11-25T10:15:28.769Z,54.26
2022-11-25T10:16:28.813Z,54.55
2022-11-25T10:17:28.808Z,55.69
2022-11-25T10:18:28.802Z,55.81
2022-11-25T10:19:28.807Z,54.29
2022-11-25T10:20:28.821Z,52.86
2022-11-25T10:21:28.836Z,53.24
2022-11-25T10:22:28.842Z,52.76
2022-11-25T10:23:28.869Z,54.29
2022-11-25T10:24:28.860Z,53.53
2022-11-25T10:25:28.867Z,54.79
2022-11-25T10:26:28.880Z,53.84
2022-11-25T10:27:28.884Z,54.50
2022-11-25T10:28:28.899Z,54.32
2022-11-25T10:29:28.909Z,54.22
2022-11-25T10:30:28.919Z,52.41
2022-11-25T10:31:28.957Z,52.22
2022-11-25T10:32:28.939Z,51.34
2022-11-25T10:33:28.965Z,51.82
2022-11-25T10:34:28.959Z,51.98
2022-11-25T10:35:28.970Z,52.45
2022-11-25T10:36:28.980Z,54.55
2022-11-25T10:37:28.986Z,55.43
2022-11-25T10:38:29.002Z,54.96
2022-11-25T10:39:29.007Z,52.39
2022-11-25T10:40:29.041Z,50.39
2022-11-25T10:41:29.026Z,49.91
2022-11-25T10:42:29.041Z,51.34
2022-11-25T10:43:31.907Z,51.75
2022-11-25T10:44:29.061Z,52.41
2022-11-25T10:45:29.068Z,54.15
2022-11-25T10:46:49.752Z,51.10
2022-11-25T10:47:29.229Z,51.10
2022-11-25T10:48:29.106Z,50.63
2022-11-25T10:49:29.132Z,49.44
2022-11-25T10:50:29.130Z,50.20
2022-11-25T10:51:29.140Z,51.25
2022-11-25T10:52:29.162Z,51.72
2022-11-25T10:53:29.155Z,51.27
2022-11-25T10:54:29.179Z,51.75
2022-11-25T10:55:29.177Z,52.41
2022-11-25T10:56:29.185Z,52.44
2022-11-25T10:57:29.207Z,51.93
2022-11-25T10:58:29.212Z,51.18
2022-11-25T10:59:29.218Z,51.82
2022-11-25T11:00:29.227Z,52.01
2022-11-25T11:01:29.297Z,52.86
2022-11-25T11:02:29.330Z,54.00
2022-11-25T11:03:29.265Z,52.86
2022-11-25T11:04:29.269Z,52.67
2022-11-25T11:05:29.307Z,53.15
2022-11-25T11:06:29.291Z,57.33
2022-11-25T11:07:29.429Z,59.93
2022-11-25T11:08:29.310Z,56.41
2022-11-25T11:09:29.326Z,54.25
2022-11-25T11:10:29.331Z,54.69
2022-11-25T11:11:29.390Z,56.15
2022-11-25T11:12:29.354Z,53.49
2022-11-25T11:13:29.367Z,52.09
2022-11-25T11:14:29.375Z,51.45
2022-11-25T11:15:29.391Z,52.18
2022-11-25T11:16:29.487Z,54.94
2022-11-25T11:17:33.238Z,52.97
2022-11-25T11:18:29.432Z,52.20
2022-11-25T11:19:29.442Z,51.35
2022-11-25T11:20:29.451Z,52.59
2022-11-25T11:21:29.485Z,52.59
2022-11-25T11:22:29.463Z,52.11
2022-11-25T11:23:29.479Z,51.16
2022-11-25T11:24:29.487Z,52.59
2022-11-25T11:25:29.501Z,55.57
2022-11-25T11:26:29.510Z,53.95
2022-11-25T11:27:29.531Z,51.25
2022-11-25T11:28:29.546Z,49.92
2022-11-25T11:29:29.551Z,50.13
2022-11-25T11:30:29.573Z,49.66
2022-11-25T11:31:29.642Z,50.04
2022-11-25T11:32:29.580Z,51.35
2022-11-25T11:33:29.598Z,50.61
2022-11-25T11:34:29.604Z,52.30
2022-11-25T11:35:29.620Z,55.80
2022-11-25T11:36:29.629Z,59.45
2022-11-25T11:37:29.673Z,59.74
2022-11-25T11:38:29.664Z,59.76
2022-11-25T11:39:29.673Z,60.17
2022-11-25T11:40:29.678Z,55.21
2022-11-25T11:41:29.695Z,53.97
2022-11-25T11:42:29.704Z,53.50
2022-11-25T11:43:29.722Z,53.12
2022-11-25T11:44:29.728Z,50.26
2022-11-25T11:45:29.746Z,50.92
2022-11-25T11:46:29.820Z,51.12
2022-11-25T11:47:29.772Z,51.52
2022-11-25T11:48:29.780Z,49.99
2022-11-25T11:49:30.904Z,48.68
2022-11-25T11:50:29.808Z,48.68
2022-11-25T11:51:29.823Z,47.80
2022-11-25T11:52:29.868Z,50.63
2022-11-25T11:53:29.867Z,55.09
2022-11-25T11:54:29.857Z,56.52
2022-11-25T11:55:29.879Z,56.40
2022-11-25T11:56:36.995Z,57.16
2022-11-25T11:57:29.904Z,53.09
2022-11-25T11:58:29.915Z,51.95
2022-11-25T11:59:29.935Z,55.28
2022-11-25T12:00:29.938Z,54.04
2022-11-25T12:01:29.955Z,55.73
2022-11-25T12:02:30.013Z,58.69
2022-11-25T12:03:30.117Z,59.54
2022-11-25T12:04:29.993Z,55.73
2022-11-25T12:05:30.008Z,53.00
2022-11-25T12:06:30.023Z,54.30
2022-11-25T12:07:30.073Z,55.95
2022-11-25T12:08:30.046Z,57.28
2022-11-25T12:09:30.089Z,58.52
2022-11-25T12:10:30.070Z,55.54
2022-11-25T12:11:30.091Z,54.21
2022-11-25T12:12:30.104Z,53.52
2022-11-25T12:13:30.112Z,53.30
2022-11-25T12:14:30.123Z,54.15
2022-11-25T12:15:30.241Z,56.34
2022-11-25T12:16:30.246Z,55.29
2022-11-25T12:17:30.167Z,54.08
2022-11-25T12:18:30.176Z,54.94
2022-11-25T12:19:30.191Z,53.61
2022-11-25T12:20:30.200Z,53.42
2022-11-25T12:21:30.220Z,57.77
2022-11-25T12:22:30.225Z,60.88
2022-11-25T12:23:30.243Z,57.36
2022-11-25T12:24:30.251Z,58.40
2022-11-25T12:25:30.284Z,61.13
2022-11-25T12:26:30.277Z,62.46
2022-11-25T12:27:30.293Z,63.79
2022-11-25T12:28:30.299Z,64.27
2022-11-25T12:29:30.314Z,63.79
2022-11-25T12:30:30.325Z,60.47
2022-11-25T12:31:30.521Z,60.85
2022-11-25T12:32:30.348Z,64.37
2022-11-25T12:33:30.365Z,63.13
2022-11-25T12:34:30.372Z,63.60
2022-11-25T12:35:30.387Z,66.17
2022-11-25T12:36:30.397Z,66.61
2022-11-25T12:37:30.424Z,66.52
2022-11-25T12:38:30.420Z,66.42
2022-11-25T12:39:30.448Z,65.09
2022-11-25T12:40:30.441Z,63.29
2022-11-25T12:41:30.495Z,62.65
2022-11-25T12:42:30.467Z,62.18
2022-11-25T12:43:30.481Z,62.65
2022-11-25T12:44:30.495Z,61.52
2022-11-25T12:45:30.525Z,60.85
2022-11-25T12:46:30.510Z,61.42
2022-11-25T12:47:30.532Z,61.71
2022-11-25T12:48:30.537Z,59.90
2022-11-25T12:49:30.549Z,59.61
2022-11-25T12:50:30.557Z,59.42
2022-11-25T12:51:30.574Z,62.05
2022-11-25T12:52:30.587Z,61.68
2022-11-25T12:53:30.607Z,60.82